Time;durP1;ratioP1;P1;durP2;ratioP2;P2;SDS_P1;SDS_P2;PMS_P1;PMS_P2;Temp;Humidity;BMP_temperature;BMP_pressure;BME280_temperature;BME280_humidity;BME280_pressure;Samples;Min_cycle;Max_cycle;Signal;HPM_P1;HPM_P2
2023/01/20 00:01:18;;;;;;;5.10;3.03;;;;;;;;;;5118842;28;20058;-83
2023/01/20 00:03:44;;;;;;;7.55;3.22;;;;;;;;;;5119341;28;20480;-86
2023/01/20 00:06:11;;;;;;;5.38;3.08;;;;;;;;;;5118325;28;20514;-86
2023/01/20 00:08:37;;;;;;;6.13;3.30;;;;;;;;;;5124163;28;20392;-84
2023/01/20 00:11:08;;;;;;;6.00;2.95;;;;;;;;;;5115968;28;20042;-84
2023/01/20 00:13:37;;;;;;;6.25;3.10;;;;;;;;;;5079940;28;20027;-86
2023/01/20 00:16:04;;;;;;;6.68;3.17;;;;;;;;;;5114897;28;20065;-86
2023/01/20 00:18:30;;;;;;;5.13;2.78;;;;;;;;;;5096923;28;20391;-84
2023/01/20 00:21:00;;;;;;;5.72;2.90;;;;;;;;;;5110200;28;20108;-85
2023/01/20 00:23:25;;;;;;;4.55;2.63;;;;;;;;;;5116864;28;20035;-85
2023/01/20 00:25:51;;;;;;;5.22;3.00;;;;;;;;;;5116713;28;20042;-87
2023/01/20 00:28:16;;;;;;;5.28;3.05;;;;;;;;;;5116674;28;20063;-84
2023/01/20 00:30:42;;;;;;;5.05;2.90;;;;;;;;;;5097579;28;20035;-87
2023/01/20 00:33:07;;;;;;;5.53;3.10;;;;;;;;;;5116658;28;20028;-86
2023/01/20 00:35:33;;;;;;;5.93;3.10;;;;;;;;;;5097387;28;20032;-84
2023/01/20 00:37:58;;;;;;;6.63;3.50;;;;;;;;;;5116454;28;20031;-84
2023/01/20 00:40:24;;;;;;;5.28;2.85;;;;;;;;;;5116398;28;20032;-85
2023/01/20 00:42:49;;;;;;;6.70;3.30;;;;;;;;;;5080713;28;20395;-85
2023/01/20 00:45:15;;;;;;;6.93;3.53;;;;;;;;;;5097167;28;20036;-86
2023/01/20 00:47:40;;;;;;;5.57;3.22;;;;;;;;;;5097452;28;20042;-84
2023/01/20 00:50:06;;;;;;;5.18;3.10;;;;;;;;;;5116247;28;20032;-85
2023/01/20 00:52:31;;;;;;;5.60;3.25;;;;;;;;;;5097663;28;20089;-85
2023/01/20 00:54:57;;;;;;;5.93;3.20;;;;;;;;;;5115439;28;20107;-86
2023/01/20 00:57:22;;;;;;;5.60;2.90;;;;;;;;;;5097517;28;20027;-85
2023/01/20 00:59:48;;;;;;;4.72;2.80;;;;;;;;;;5115578;28;20082;-86
2023/01/20 01:02:13;;;;;;;5.30;3.15;;;;;;;;;;5116207;28;20023;-85
2023/01/20 01:04:39;;;;;;;9.40;3.25;;;;;;;;;;5097161;28;20400;-85
2023/01/20 01:07:04;;;;;;;6.05;2.95;;;;;;;;;;5115510;28;20068;-85
2023/01/20 01:09:31;;;;;;;5.15;3.00;;;;;;;;;;5097421;28;20023;-86
2023/01/20 01:11:56;;;;;;;6.10;3.00;;;;;;;;;;5103868;28;20137;-84
2023/01/20 01:14:22;;;;;;;6.45;3.00;;;;;;;;;;5099039;28;20052;-86
2023/01/20 01:16:47;;;;;;;7.03;3.05;;;;;;;;;;5114808;28;20369;-88
2023/01/20 01:19:13;;;;;;;8.68;3.08;;;;;;;;;;5114379;28;20043;-84
2023/01/20 01:21:38;;;;;;;7.05;3.10;;;;;;;;;;5114457;28;20034;-85
2023/01/20 01:24:04;;;;;;;5.47;3.25;;;;;;;;;;5095909;28;20043;-87
2023/01/20 01:26:29;;;;;;;4.43;3.00;;;;;;;;;;5095656;28;20040;-85
2023/01/20 01:28:55;;;;;;;4.70;2.65;;;;;;;;;;5095615;28;20035;-86
2023/01/20 01:31:23;;;;;;;5.65;3.10;;;;;;;;;;5114020;28;20115;-86
2023/01/20 01:33:48;;;;;;;4.85;3.00;;;;;;;;;;5095390;28;20388;-85
2023/01/20 01:36:16;;;;;;;7.22;3.20;;;;;;;;;;5095157;28;20499;-85
2023/01/20 01:38:42;;;;;;;7.28;3.15;;;;;;;;;;5126431;28;20044;-84
2023/01/20 01:41:10;;;;;;;4.85;2.83;;;;;;;;;;5105183;28;20070;-85
2023/01/20 01:43:36;;;;;;;5.88;3.28;;;;;;;;;;5097611;28;20031;-85
2023/01/20 01:46:03;;;;;;;5.60;3.15;;;;;;;;;;5097086;28;20077;-86
2023/01/20 01:48:38;;;;;;;6.07;3.40;;;;;;;;;;5115146;28;20506;-85
2023/01/20 01:51:06;;;;;;;6.15;3.30;;;;;;;;;;5115609;28;20032;-85
2023/01/20 01:53:39;;;;;;;4.82;3.00;;;;;;;;;;5115289;28;20056;-85
2023/01/20 01:56:04;;;;;;;5.63;3.30;;;;;;;;;;5115857;28;20039;-85
2023/01/20 01:58:34;;;;;;;5.63;3.08;;;;;;;;;;5116294;28;20035;-84
2023/01/20 02:01:00;;;;;;;5.13;2.83;;;;;;;;;;5116717;28;20032;-84
2023/01/20 02:03:30;;;;;;;4.78;2.95;;;;;;;;;;5098016;28;20598;-85
2023/01/20 02:05:56;;;;;;;5.78;3.35;;;;;;;;;;5117168;28;20062;-85
2023/01/20 02:08:23;;;;;;;5.10;3.20;;;;;;;;;;5096654;28;20042;-87
2023/01/20 02:10:48;;;;;;;6.63;3.13;;;;;;;;;;5114498;28;20065;-84
2023/01/20 02:13:14;;;;;;;6.00;3.20;;;;;;;;;;5114669;28;20030;-85
2023/01/20 02:16:37;;;;;;;6.63;2.83;;;;;;;;;;5114172;28;20038;-85
2023/01/20 02:19:12;;;;;;;6.60;3.17;;;;;;;;;;5038206;28;20049;-87
2023/01/20 02:21:56;;;;;;;5.30;2.90;;;;;;;;;;5032867;28;20029;-87
2023/01/20 02:24:40;;;;;;;5.15;2.90;;;;;;;;;;5085612;28;20488;-84
2023/01/20 02:27:22;;;;;;;5.03;2.83;;;;;;;;;;5115910;28;20115;-85
2023/01/20 02:30:06;;;;;;;5.17;3.30;;;;;;;;;;5097398;28;20031;-85
2023/01/20 02:32:52;;;;;;;4.85;3.00;;;;;;;;;;5096895;28;20396;-84
2023/01/20 02:35:45;;;;;;;12.05;3.25;;;;;;;;;;5114988;28;20047;-85
2023/01/20 02:38:29;;;;;;;6.10;3.10;;;;;;;;;;5113389;28;20024;-85
2023/01/20 02:41:04;;;;;;;5.95;3.13;;;;;;;;;;5113375;28;20087;-85
2023/01/20 02:43:40;;;;;;;8.27;3.17;;;;;;;;;;5094869;28;20036;-85
2023/01/20 02:46:17;;;;;;;7.22;3.30;;;;;;;;;;5094070;28;20377;-86
2023/01/20 02:49:02;;;;;;;6.20;3.25;;;;;;;;;;5077828;28;20130;-84
2023/01/20 02:51:33;;;;;;;6.03;3.20;;;;;;;;;;5094590;28;20039;-85
2023/01/20 02:54:04;;;;;;;7.60;3.33;;;;;;;;;;5112269;28;20036;-85
2023/01/20 02:56:32;;;;;;;5.97;3.45;;;;;;;;;;5112202;28;20376;-84
2023/01/20 02:59:04;;;;;;;5.53;3.22;;;;;;;;;;5108090;28;20036;-86
2023/01/20 03:01:33;;;;;;;6.20;3.30;;;;;;;;;;5114278;28;20469;-85
2023/01/20 03:04:02;;;;;;;7.03;3.38;;;;;;;;;;5095155;28;20126;-85
2023/01/20 03:06:33;;;;;;;8.93;3.05;;;;;;;;;;5114036;28;20051;-84
2023/01/20 03:09:04;;;;;;;6.43;3.70;;;;;;;;;;5114030;28;20495;-86
2023/01/20 03:11:31;;;;;;;8.73;3.15;;;;;;;;;;5114519;28;20031;-84
2023/01/20 03:14:03;;;;;;;6.80;3.13;;;;;;;;;;5095521;28;20035;-83
2023/01/20 03:16:29;;;;;;;6.95;3.58;;;;;;;;;;5114282;28;20083;-82
2023/01/20 03:18:55;;;;;;;8.85;3.35;;;;;;;;;;5114885;28;20042;-84
2023/01/20 03:21:21;;;;;;;5.93;3.10;;;;;;;;;;5116094;28;20024;-85
2023/01/20 03:23:52;;;;;;;7.03;3.50;;;;;;;;;;5086037;28;20035;-84
2023/01/20 03:26:20;;;;;;;5.90;3.10;;;;;;;;;;5113906;28;20042;-86
2023/01/20 03:28:47;;;;;;;5.35;2.90;;;;;;;;;;5115350;28;20027;-85
2023/01/20 03:31:28;;;;;;;5.75;2.80;;;;;;;;;;5116700;28;20039;-84
2023/01/20 03:33:57;;;;;;;5.13;3.10;;;;;;;;;;5098571;28;20031;-85
2023/01/20 03:36:26;;;;;;;8.32;3.60;;;;;;;;;;5117200;28;20031;-85
2023/01/20 03:38:53;;;;;;;5.18;3.47;;;;;;;;;;5098366;28;20474;-84
2023/01/20 03:41:33;;;;;;;7.57;3.65;;;;;;;;;;5098399;28;20028;-84
2023/01/20 03:44:46;;;;;;;7.30;3.40;;;;;;;;;;5098264;28;20108;-85
2023/01/20 03:47:36;;;;;;;6.30;3.70;;;;;;;;;;5079522;28;20035;-84
2023/01/20 03:50:08;;;;;;;6.15;3.38;;;;;;;;;;5116396;28;20028;-84
2023/01/20 03:52:58;;;;;;;5.50;3.63;;;;;;;;;;5097948;28;20043;-87
2023/01/20 03:55:40;;;;;;;9.27;3.92;;;;;;;;;;5115722;28;20043;-83
2023/01/20 03:58:17;;;;;;;6.00;3.50;;;;;;;;;;5098216;28;20035;-84
2023/01/20 04:00:46;;;;;;;6.20;3.40;;;;;;;;;;5080814;28;20484;-84
2023/01/20 04:03:26;;;;;;;6.90;3.65;;;;;;;;;;5097934;28;20043;-84
2023/01/20 04:05:52;;;;;;;7.40;3.35;;;;;;;;;;5080209;28;20130;-84
2023/01/20 04:08:21;;;;;;;5.80;3.47;;;;;;;;;;5115480;28;20100;-85
2023/01/20 04:10:49;;;;;;;6.72;3.70;;;;;;;;;;5115567;28;20107;-84
2023/01/20 04:13:15;;;;;;;5.55;3.33;;;;;;;;;;5115302;28;20024;-84
2023/01/20 04:15:45;;;;;;;8.10;3.95;;;;;;;;;;5115647;28;20102;-83
2023/01/20 04:18:11;;;;;;;9.57;3.67;;;;;;;;;;5127388;28;20051;-84
2023/01/20 04:20:36;;;;;;;7.88;3.90;;;;;;;;;;5098692;28;20032;-85
2023/01/20 04:23:02;;;;;;;5.50;3.53;;;;;;;;;;5098676;28;20028;-84
2023/01/20 04:25:30;;;;;;;7.20;3.38;;;;;;;;;;5121450;22;20424;-81
2023/01/20 04:27:56;;;;;;;5.95;3.72;;;;;;;;;;5121061;28;20126;-81
2023/01/20 04:30:21;;;;;;;7.47;3.60;;;;;;;;;;5121586;28;20067;-81
2023/01/20 04:32:47;;;;;;;7.55;4.03;;;;;;;;;;5121109;28;20042;-81
2023/01/20 04:35:14;;;;;;;8.65;3.60;;;;;;;;;;5102788;28;20068;-81
2023/01/20 04:37:40;;;;;;;5.38;3.53;;;;;;;;;;5103595;28;20039;-81
2023/01/20 04:40:06;;;;;;;7.03;3.50;;;;;;;;;;5122198;28;20036;-81
2023/01/20 04:42:32;;;;;;;5.85;3.58;;;;;;;;;;5117445;28;20055;-81
2023/01/20 04:44:58;;;;;;;6.07;3.55;;;;;;;;;;5119274;28;20039;-80
2023/01/20 04:47:23;;;;;;;7.85;3.70;;;;;;;;;;5123988;28;20032;-80
2023/01/20 04:49:49;;;;;;;7.13;3.58;;;;;;;;;;5122815;28;20032;-80
2023/01/20 04:52:15;;;;;;;6.45;3.70;;;;;;;;;;5123093;28;20032;-80
2023/01/20 04:54:40;;;;;;;6.32;3.67;;;;;;;;;;5124010;28;20047;-83
2023/01/20 04:57:06;;;;;;;6.00;3.25;;;;;;;;;;5123183;28;20063;-82
2023/01/20 04:59:31;;;;;;;5.93;3.38;;;;;;;;;;5122449;28;20038;-79
2023/01/20 05:01:57;;;;;;;4.63;2.85;;;;;;;;;;5087071;28;20042;-81
2023/01/20 05:04:22;;;;;;;7.75;3.63;;;;;;;;;;5122415;28;20081;-81
2023/01/20 05:06:48;;;;;;;5.93;3.50;;;;;;;;;;5122481;28;20027;-81
2023/01/20 05:09:15;;;;;;;7.57;3.35;;;;;;;;;;5104010;28;20047;-81
2023/01/20 05:11:41;;;;;;;7.45;3.42;;;;;;;;;;5103551;28;20507;-81
2023/01/20 05:14:07;;;;;;;6.07;3.00;;;;;;;;;;5121763;28;20042;-81
2023/01/20 05:16:33;;;;;;;7.00;3.22;;;;;;;;;;5123105;28;20023;-81
2023/01/20 05:18:59;;;;;;;4.70;2.63;;;;;;;;;;5122698;28;20028;-81
2023/01/20 05:21:25;;;;;;;5.32;3.22;;;;;;;;;;5122029;28;20051;-82
2023/01/20 05:23:55;;;;;;;4.38;2.70;;;;;;;;;;5121410;28;20506;-81
2023/01/20 05:26:25;;;;;;;4.93;2.80;;;;;;;;;;5121194;28;20034;-82
2023/01/20 05:28:50;;;;;;;5.78;2.97;;;;;;;;;;5122398;28;20076;-81
2023/01/20 05:31:16;;;;;;;5.25;2.75;;;;;;;;;;5104174;28;20024;-81
2023/01/20 05:33:41;;;;;;;7.35;3.40;;;;;;;;;;5121710;28;20048;-82
2023/01/20 05:36:09;;;;;;;9.02;4.00;;;;;;;;;;5103329;28;20062;-80
2023/01/20 05:38:35;;;;;;;7.80;3.83;;;;;;;;;;5122085;28;20040;-81
2023/01/20 05:41:01;;;;;;;10.38;4.22;;;;;;;;;;5118092;28;20088;-81
2023/01/20 05:43:27;;;;;;;6.38;3.17;;;;;;;;;;5122462;28;20028;-81
2023/01/20 05:45:53;;;;;;;4.72;2.88;;;;;;;;;;5099973;28;20032;-81
2023/01/20 05:48:18;;;;;;;4.88;2.90;;;;;;;;;;5101427;28;20024;-81
2023/01/20 05:50:44;;;;;;;7.30;3.30;;;;;;;;;;5101755;28;20503;-82
2023/01/20 05:53:09;;;;;;;11.40;6.15;;;;;;;;;;5101087;28;20038;-81
2023/01/20 05:55:35;;;;;;;10.02;5.72;;;;;;;;;;5100114;28;20222;-81
2023/01/20 05:58:01;;;;;;;9.02;4.72;;;;;;;;;;5083105;28;20032;-82
2023/01/20 06:00:27;;;;;;;11.88;6.45;;;;;;;;;;5100497;28;20040;-82
2023/01/20 06:02:52;;;;;;;15.02;8.43;;;;;;;;;;5100974;28;20047;-82
2023/01/20 06:05:18;;;;;;;10.35;6.22;;;;;;;;;;5100935;28;20111;-82
2023/01/20 06:07:43;;;;;;;8.30;5.68;;;;;;;;;;5083241;28;20044;-82
2023/01/20 06:10:09;;;;;;;19.27;8.10;;;;;;;;;;5101100;28;20035;-83
2023/01/20 06:12:35;;;;;;;8.70;5.18;;;;;;;;;;5082020;28;20036;-82
2023/01/20 06:15:00;;;;;;;9.43;5.30;;;;;;;;;;5100059;28;20077;-82
2023/01/20 06:17:26;;;;;;;10.40;5.72;;;;;;;;;;5100186;28;20034;-81
2023/01/20 06:19:52;;;;;;;12.10;6.88;;;;;;;;;;5107118;28;20100;-81
2023/01/20 06:22:19;;;;;;;11.13;6.63;;;;;;;;;;5120362;28;20031;-81
2023/01/20 06:24:45;;;;;;;7.35;4.72;;;;;;;;;;5101914;28;20111;-81
2023/01/20 06:27:10;;;;;;;7.60;4.47;;;;;;;;;;5121561;28;20055;-82
2023/01/20 06:29:36;;;;;;;9.23;4.45;;;;;;;;;;5101712;28;20058;-81
2023/01/20 06:32:02;;;;;;;6.95;4.28;;;;;;;;;;5120676;28;20034;-81
2023/01/20 06:34:27;;;;;;;8.65;4.93;;;;;;;;;;5119432;28;20039;-81
2023/01/20 06:36:53;;;;;;;9.68;5.60;;;;;;;;;;5101378;28;20115;-81
2023/01/20 06:39:18;;;;;;;9.07;4.88;;;;;;;;;;5120233;28;20054;-81
2023/01/20 06:41:43;;;;;;;8.57;5.40;;;;;;;;;;5119593;28;20036;-81
2023/01/20 06:44:09;;;;;;;15.20;7.60;;;;;;;;;;5119923;28;20051;-81
2023/01/20 06:46:34;;;;;;;8.57;5.25;;;;;;;;;;5100511;28;20097;-81
2023/01/20 06:49:00;;;;;;;8.63;4.82;;;;;;;;;;5119817;28;20031;-81
2023/01/20 06:51:27;;;;;;;8.93;5.25;;;;;;;;;;5119400;28;20106;-81
2023/01/20 06:53:53;;;;;;;9.98;5.82;;;;;;;;;;5119621;28;20039;-81
2023/01/20 06:56:19;;;;;;;9.57;5.13;;;;;;;;;;5119820;28;20040;-81
2023/01/20 06:58:45;;;;;;;12.60;5.78;;;;;;;;;;5119520;28;20053;-81
2023/01/20 07:01:28;;;;;;;13.57;6.45;;;;;;;;;;5120357;28;20032;-81
2023/01/20 07:03:54;;;;;;;11.13;5.85;;;;;;;;;;5102229;28;20042;-82
2023/01/20 07:06:25;;;;;;;11.18;5.55;;;;;;;;;;5122239;28;20036;-81
2023/01/20 07:08:51;;;;;;;12.48;5.55;;;;;;;;;;5124622;28;20047;-81
2023/01/20 07:11:16;;;;;;;14.63;7.43;;;;;;;;;;5125079;28;20122;-81
2023/01/20 07:13:42;;;;;;;12.77;6.63;;;;;;;;;;5125225;28;20043;-82
2023/01/20 07:16:08;;;;;;;11.35;6.25;;;;;;;;;;5124246;28;20035;-81
2023/01/20 07:18:34;;;;;;;13.93;6.35;;;;;;;;;;5107056;28;20479;-81
2023/01/20 07:20:59;;;;;;;11.75;6.63;;;;;;;;;;5107089;28;20036;-82
2023/01/20 07:23:26;;;;;;;14.32;7.43;;;;;;;;;;5124145;28;20134;-81
2023/01/20 07:26:12;;;;;;;11.48;5.97;;;;;;;;;;5122803;28;20031;-80
2023/01/20 07:28:37;;;;;;;11.95;5.65;;;;;;;;;;5104325;28;20036;-80
2023/01/20 07:31:08;;;;;;;11.32;5.82;;;;;;;;;;5121454;28;20114;-81
2023/01/20 07:33:34;;;;;;;16.08;7.90;;;;;;;;;;5108251;28;20112;-80
2023/01/20 07:36:00;;;;;;;14.45;7.60;;;;;;;;;;5101671;28;20036;-81
2023/01/20 07:38:26;;;;;;;19.55;9.23;;;;;;;;;;5101751;28;20043;-81
2023/01/20 07:40:52;;;;;;;18.77;9.05;;;;;;;;;;5102298;28;20040;-80
2023/01/20 07:43:18;;;;;;;32.20;12.32;;;;;;;;;;5100670;28;20031;-81
2023/01/20 07:45:43;;;;;;;20.92;9.90;;;;;;;;;;5082918;28;20066;-82
2023/01/20 07:48:08;;;;;;;15.85;8.73;;;;;;;;;;5101427;28;20068;-82
2023/01/20 07:50:35;;;;;;;16.40;8.98;;;;;;;;;;5082546;28;20043;-81
2023/01/20 07:53:01;;;;;;;15.88;8.35;;;;;;;;;;5100964;28;20466;-81
2023/01/20 07:55:26;;;;;;;13.13;8.13;;;;;;;;;;5083219;28;20085;-82
2023/01/20 07:57:52;;;;;;;11.95;7.68;;;;;;;;;;5101074;28;20031;-80
2023/01/20 08:00:18;;;;;;;16.20;8.25;;;;;;;;;;5103919;28;20059;-81
2023/01/20 08:02:43;;;;;;;16.20;9.38;;;;;;;;;;5085490;28;20066;-82
2023/01/20 08:05:09;;;;;;;18.08;10.02;;;;;;;;;;5103062;28;20048;-81
2023/01/20 08:07:34;;;;;;;15.95;10.43;;;;;;;;;;5084643;28;20119;-81
2023/01/20 08:10:00;;;;;;;17.88;9.25;;;;;;;;;;5100073;28;20399;-82
2023/01/20 08:12:27;;;;;;;14.50;7.85;;;;;;;;;;5099886;28;20031;-81
2023/01/20 08:14:52;;;;;;;15.93;8.57;;;;;;;;;;5098471;28;20032;-81
2023/01/20 08:17:18;;;;;;;14.90;9.07;;;;;;;;;;5100379;28;20404;-81
2023/01/20 08:19:43;;;;;;;16.30;9.23;;;;;;;;;;5100745;28;20131;-82
2023/01/20 08:22:09;;;;;;;14.02;7.80;;;;;;;;;;5100982;28;20047;-81
2023/01/20 08:24:34;;;;;;;16.42;9.00;;;;;;;;;;5102831;28;20032;-81
2023/01/20 08:27:00;;;;;;;13.07;7.55;;;;;;;;;;5078278;28;20043;-80
2023/01/20 08:29:25;;;;;;;13.30;7.63;;;;;;;;;;5095305;28;20020;-80
2023/01/20 08:31:51;;;;;;;13.10;7.30;;;;;;;;;;5097386;28;20405;-80
2023/01/20 08:34:17;;;;;;;12.02;7.35;;;;;;;;;;5081866;28;20040;-82
2023/01/20 08:36:44;;;;;;;11.93;6.65;;;;;;;;;;5065823;28;20032;-80
2023/01/20 08:39:13;;;;;;;12.25;7.93;;;;;;;;;;5101429;28;20131;-82
2023/01/20 08:41:40;;;;;;;11.50;7.13;;;;;;;;;;5101008;28;20043;-79
2023/01/20 08:44:07;;;;;;;15.00;7.15;;;;;;;;;;5081421;28;20040;-84
2023/01/20 08:46:33;;;;;;;10.93;7.47;;;;;;;;;;5101784;28;20050;-81
2023/01/20 08:48:59;;;;;;;11.60;7.65;;;;;;;;;;5082405;28;20040;-80
2023/01/20 08:51:28;;;;;;;11.35;6.75;;;;;;;;;;5102516;28;20043;-80
2023/01/20 08:53:54;;;;;;;15.10;8.02;;;;;;;;;;5084873;28;20036;-80
2023/01/20 08:56:19;;;;;;;10.75;6.60;;;;;;;;;;5102634;28;20119;-80
2023/01/20 08:58:45;;;;;;;10.95;6.60;;;;;;;;;;5084408;28;20675;-80
2023/01/20 09:01:20;;;;;;;11.55;7.25;;;;;;;;;;5084171;28;20036;-80
2023/01/20 09:03:46;;;;;;;15.02;7.93;;;;;;;;;;5084102;28;20496;-80
2023/01/20 09:06:12;;;;;;;21.30;11.35;;;;;;;;;;5083204;28;20031;-80
2023/01/20 09:08:38;;;;;;;19.85;10.45;;;;;;;;;;5101623;28;20033;-80
2023/01/20 09:11:12;;;;;;;13.30;7.40;;;;;;;;;;5100427;28;20395;-79
2023/01/20 09:13:38;;;;;;;13.00;7.75;;;;;;;;;;5081106;28;20040;-81
2023/01/20 09:16:04;;;;;;;14.23;8.30;;;;;;;;;;5098825;28;20051;-84
2023/01/20 09:18:31;;;;;;;15.55;8.60;;;;;;;;;;5100698;28;20036;-80
2023/01/20 09:20:58;;;;;;;9.23;5.88;;;;;;;;;;5101331;28;20036;-80
2023/01/20 09:23:24;;;;;;;13.73;6.20;;;;;;;;;;5101422;28;20051;-82
2023/01/20 09:25:51;;;;;;;10.43;6.35;;;;;;;;;;5100816;28;20115;-83
2023/01/20 09:28:17;;;;;;;12.43;7.70;;;;;;;;;;5081019;28;20092;-82
2023/01/20 09:30:42;;;;;;;14.45;6.97;;;;;;;;;;5099085;28;20035;-81
2023/01/20 09:33:12;;;;;;;12.63;6.40;;;;;;;;;;5099472;28;20020;-81
2023/01/20 09:35:38;;;;;;;20.90;8.77;;;;;;;;;;5080550;28;20431;-82
2023/01/20 09:43:57;;;;;;;15.88;7.28;;;;;;;;;;5099170;28;20087;-82
2023/01/20 09:46:41;;;;;;;10.95;6.50;;;;;;;;;;5081676;28;20073;-82
2023/01/20 09:53:07;;;;;;;11.25;5.95;;;;;;;;;;5119395;28;20546;-83
2023/01/20 09:55:44;;;;;;;9.38;5.50;;;;;;;;;;5003028;28;20552;-82
2023/01/20 09:58:37;;;;;;;10.68;6.00;;;;;;;;;;5036518;28;20037;-83
2023/01/20 10:01:11;;;;;;;14.38;8.10;;;;;;;;;;5107266;28;20058;-82
2023/01/20 10:03:51;;;;;;;13.20;7.63;;;;;;;;;;5115885;28;20020;-82
2023/01/20 10:06:28;;;;;;;11.68;6.30;;;;;;;;;;5115411;28;20060;-81
2023/01/20 10:09:13;;;;;;;10.75;6.10;;;;;;;;;;5120186;28;20031;-82
2023/01/20 10:11:41;;;;;;;12.20;6.97;;;;;;;;;;5120840;28;20031;-81
2023/01/20 10:14:31;;;;;;;12.95;7.70;;;;;;;;;;5121010;28;20024;-81
2023/01/20 10:17:06;;;;;;;14.25;6.60;;;;;;;;;;5120738;28;20027;-81
2023/01/20 10:19:35;;;;;;;11.20;6.80;;;;;;;;;;5103064;28;20096;-80
2023/01/20 10:22:11;;;;;;;11.63;6.80;;;;;;;;;;5102434;28;20038;-82
2023/01/20 10:24:47;;;;;;;13.30;6.35;;;;;;;;;;5144103;22;20031;-85
2023/01/20 10:27:12;;;;;;;11.75;6.63;;;;;;;;;;5054633;28;20678;-86
2023/01/20 10:29:48;;;;;;;11.82;6.95;;;;;;;;;;5057803;28;20029;-83
2023/01/20 10:32:44;;;;;;;10.65;5.28;;;;;;;;;;5074336;28;20040;-86
2023/01/20 10:35:17;;;;;;;11.15;5.55;;;;;;;;;;5072981;28;20025;-86
2023/01/20 10:37:43;;;;;;;;;;;;;;;;;;5054971;28;20036;-81
2023/01/20 10:40:33;;;;;;;9.98;6.05;;;;;;;;;;5073972;28;19917;-84
2023/01/20 10:43:03;;;;;;;12.70;6.03;;;;;;;;;;5058511;28;20126;-84
2023/01/20 10:45:45;;;;;;;11.65;6.70;;;;;;;;;;5075860;28;20086;-84
2023/01/20 10:48:29;;;;;;;10.00;6.30;;;;;;;;;;5066515;28;20040;-82
2023/01/20 10:51:05;;;;;;;;;;;;;;;;;;5079098;28;20044;-82
2023/01/20 10:54:02;;;;;;;8.32;4.88;;;;;;;;;;5076995;28;19958;-85
2023/01/20 10:56:35;;;;;;;10.38;5.78;;;;;;;;;;5045031;28;20079;-83
2023/01/20 10:59:11;;;;;;;8.57;5.10;;;;;;;;;;5078111;28;20055;-84
2023/01/20 11:01:36;;;;;;;7.47;4.95;;;;;;;;;;5078154;28;20037;-84
2023/01/20 11:04:02;;;;;;;9.32;5.60;;;;;;;;;;5077555;28;20045;-84
2023/01/20 11:06:27;;;;;;;9.75;5.82;;;;;;;;;;5077336;28;20040;-84
2023/01/20 11:08:54;;;;;;;9.80;5.22;;;;;;;;;;5077739;28;20497;-84
2023/01/20 11:11:24;;;;;;;8.65;5.50;;;;;;;;;;5059847;28;20032;-85
2023/01/20 11:13:51;;;;;;;8.18;5.60;;;;;;;;;;5077232;28;20033;-85
2023/01/20 11:16:23;;;;;;;9.90;6.05;;;;;;;;;;5077978;28;20048;-84
2023/01/20 11:18:54;;;;;;;10.40;6.10;;;;;;;;;;5077701;28;20055;-84
2023/01/20 11:21:25;;;;;;;10.60;6.43;;;;;;;;;;5059843;28;20516;-85
2023/01/20 11:23:56;;;;;;;12.43;6.40;;;;;;;;;;5042687;28;20047;-85
2023/01/20 11:26:32;;;;;;;9.90;6.15;;;;;;;;;;5042691;28;20032;-85
2023/01/20 11:29:22;;;;;;;7.45;4.25;;;;;;;;;;5044593;28;20104;-86
2023/01/20 11:31:53;;;;;;;6.32;3.67;;;;;;;;;;5079121;28;20039;-83
2023/01/20 11:34:21;;;;;;;8.38;4.60;;;;;;;;;;5060450;28;20527;-84
2023/01/20 11:36:48;;;;;;;10.80;4.90;;;;;;;;;;5060345;28;20032;-83
2023/01/20 11:39:32;;;;;;;7.32;4.20;;;;;;;;;;5077945;28;20025;-84
2023/01/20 11:42:19;;;;;;;9.10;4.85;;;;;;;;;;5067428;28;20040;-83
2023/01/20 11:44:48;;;;;;;7.65;4.25;;;;;;;;;;5047226;28;20037;-83
2023/01/20 11:47:27;;;;;;;10.07;4.18;;;;;;;;;;5081814;28;20039;-84
2023/01/20 11:50:08;;;;;;;6.90;4.00;;;;;;;;;;5081550;28;20040;-84
2023/01/20 11:52:42;;;;;;;8.55;4.32;;;;;;;;;;5082060;28;20041;-83
2023/01/20 11:55:12;;;;;;;8.25;4.32;;;;;;;;;;5065007;28;20036;-85
2023/01/20 11:57:41;;;;;;;6.45;3.90;;;;;;;;;;5081121;28;20052;-82
2023/01/20 12:00:34;;;;;;;9.43;3.80;;;;;;;;;;5080763;28;20060;-82
2023/01/20 12:03:25;;;;;;;6.22;3.50;;;;;;;;;;5067777;28;20041;-82
2023/01/20 12:06:10;;;;;;;6.18;3.70;;;;;;;;;;5086553;28;20143;-83
2023/01/20 12:08:51;;;;;;;4.93;3.05;;;;;;;;;;5061103;28;20382;-85
2023/01/20 12:11:33;;;;;;;4.63;3.05;;;;;;;;;;5061221;28;20036;-84
2023/01/20 12:14:22;;;;;;;5.60;3.00;;;;;;;;;;5079158;28;20036;-85
2023/01/20 12:16:52;;;;;;;6.28;3.40;;;;;;;;;;5078499;28;20044;-85
2023/01/20 12:19:21;;;;;;;5.47;2.72;;;;;;;;;;5079216;28;20040;-86
2023/01/20 12:21:51;;;;;;;6.30;3.22;;;;;;;;;;5079277;28;20037;-83
2023/01/20 12:24:19;;;;;;;4.95;2.53;;;;;;;;;;5079119;28;20087;-84
2023/01/20 12:26:45;;;;;;;4.32;2.60;;;;;;;;;;5060358;28;20094;-84
2023/01/20 12:29:19;;;;;;;4.25;2.40;;;;;;;;;;5079677;28;20036;-84
2023/01/20 12:31:47;;;;;;;3.53;2.03;;;;;;;;;;5079060;28;20058;-85
2023/01/20 12:34:25;;;;;;;3.95;2.10;;;;;;;;;;5078510;28;20032;-85
2023/01/20 12:37:06;;;;;;;2.63;1.85;;;;;;;;;;5078988;28;20032;-85
2023/01/20 12:39:32;;;;;;;3.45;2.00;;;;;;;;;;5079145;28;20484;-84
2023/01/20 12:42:09;;;;;;;3.67;1.88;;;;;;;;;;5078866;28;20135;-83
2023/01/20 12:44:52;;;;;;;3.45;1.80;;;;;;;;;;5078379;28;20096;-84
2023/01/20 12:47:40;;;;;;;5.15;2.38;;;;;;;;;;5078167;28;20370;-84
2023/01/20 12:50:24;;;;;;;3.33;2.00;;;;;;;;;;5060562;28;20040;-84
2023/01/20 12:53:13;;;;;;;3.25;2.15;;;;;;;;;;5060737;28;20489;-85
2023/01/20 12:56:26;;;;;;;4.10;2.25;;;;;;;;;;5060778;28;20100;-84
2023/01/20 12:59:29;;;;;;;5.80;2.25;;;;;;;;;;5059302;28;20048;-84
2023/01/20 13:02:15;;;;;;;4.70;2.45;;;;;;;;;;5068573;28;20041;-85
2023/01/20 13:04:46;;;;;;;5.53;2.72;;;;;;;;;;5060607;28;20048;-84
2023/01/20 13:07:18;;;;;;;5.45;2.75;;;;;;;;;;5065649;28;20408;-83
2023/01/20 13:10:05;;;;;;;4.18;2.30;;;;;;;;;;5059395;28;20036;-85
2023/01/20 13:13:04;;;;;;;6.15;3.45;;;;;;;;;;5075923;28;20050;-82
2023/01/20 13:15:41;;;;;;;9.60;4.72;;;;;;;;;;5057282;28;20036;-84
2023/01/20 13:18:21;;;;;;;7.95;3.78;;;;;;;;;;5074835;28;20036;-84
2023/01/20 13:20:47;;;;;;;8.80;4.40;;;;;;;;;;5074306;28;20044;-83
2023/01/20 13:23:22;;;;;;;4.57;2.90;;;;;;;;;;5085851;28;20062;-85
2023/01/20 13:25:49;;;;;;;6.05;3.35;;;;;;;;;;5076956;28;20400;-84
2023/01/20 13:28:17;;;;;;;4.10;2.85;;;;;;;;;;5076920;28;20033;-83
2023/01/20 13:30:46;;;;;;;5.28;2.95;;;;;;;;;;5077343;28;20036;-85
2023/01/20 13:33:33;;;;;;;8.68;3.42;;;;;;;;;;5076774;28;20104;-85
2023/01/20 13:36:11;;;;;;;9.63;4.25;;;;;;;;;;5077375;28;20520;-86
2023/01/20 13:38:38;;;;;;;5.63;3.58;;;;;;;;;;5077854;28;20040;-86
2023/01/20 13:41:05;;;;;;;8.25;3.00;;;;;;;;;;5078477;28;20032;-85
2023/01/20 13:43:30;;;;;;;4.97;2.55;;;;;;;;;;5059496;28;20032;-86
2023/01/20 13:46:01;;;;;;;5.32;2.55;;;;;;;;;;5077024;28;20044;-85
2023/01/20 13:48:28;;;;;;;30.85;10.68;;;;;;;;;;5059926;28;20090;-85
2023/01/20 13:51:14;;;;;;;69.03;23.88;;;;;;;;;;5058631;28;20032;-85
2023/01/20 13:53:40;;;;;;;96.00;25.65;;;;;;;;;;5074956;28;20044;-84
2023/01/20 13:56:34;;;;;;;12.20;4.55;;;;;;;;;;5057578;28;20075;-84
2023/01/20 13:58:59;;;;;;;24.33;9.80;;;;;;;;;;5077274;28;20078;-84
2023/01/20 14:01:26;;;;;;;8.80;3.60;;;;;;;;;;5076886;28;20104;-85
2023/01/20 14:04:05;;;;;;;4.82;2.78;;;;;;;;;;5058839;28;20039;-84
2023/01/20 14:06:34;;;;;;;9.30;4.47;;;;;;;;;;5076592;28;20032;-84
2023/01/20 14:09:01;;;;;;;5.57;3.65;;;;;;;;;;5076948;28;20115;-86
2023/01/20 14:11:28;;;;;;;9.32;6.30;;;;;;;;;;5079923;28;20024;-85
2023/01/20 14:14:06;;;;;;;6.97;4.10;;;;;;;;;;5041561;28;20046;-86
2023/01/20 14:16:35;;;;;;;6.72;4.22;;;;;;;;;;5058268;28;20040;-86
2023/01/20 14:19:21;;;;;;;5.00;2.95;;;;;;;;;;5076635;28;20033;-86
2023/01/20 14:21:51;;;;;;;3.97;2.30;;;;;;;;;;5061147;28;20068;-85
2023/01/20 14:24:29;;;;;;;7.35;2.60;;;;;;;;;;5076767;28;20040;-80
2023/01/20 14:27:18;;;;;;;3.40;2.20;;;;;;;;;;5057923;28;20044;-85
2023/01/20 14:29:47;;;;;;;4.10;2.38;;;;;;;;;;5056225;28;20040;-83
2023/01/20 14:32:27;;;;;;;7.18;2.58;;;;;;;;;;5073986;28;20120;-83
2023/01/20 14:34:53;;;;;;;4.18;2.13;;;;;;;;;;5073804;28;20036;-84
2023/01/20 14:37:23;;;;;;;3.38;2.10;;;;;;;;;;5072542;28;20409;-83
2023/01/20 14:39:50;;;;;;;5.85;2.80;;;;;;;;;;5085110;28;20048;-84
2023/01/20 14:42:20;;;;;;;20.63;6.70;;;;;;;;;;5075600;28;20056;-83
2023/01/20 14:44:48;;;;;;;9.63;3.65;;;;;;;;;;5074867;28;20037;-84
2023/01/20 14:47:14;;;;;;;7.32;3.25;;;;;;;;;;5075127;28;20036;-84
2023/01/20 14:49:42;;;;;;;5.95;2.92;;;;;;;;;;5075658;28;20037;-83
2023/01/20 14:52:13;;;;;;;5.65;2.60;;;;;;;;;;5057592;28;20024;-82
2023/01/20 14:54:44;;;;;;;15.88;7.20;;;;;;;;;;5075098;28;20036;-86
2023/01/20 14:57:27;;;;;;;12.60;7.47;;;;;;;;;;5040394;28;20044;-83
2023/01/20 15:00:14;;;;;;;8.60;3.92;;;;;;;;;;5075431;28;20039;-83
2023/01/20 15:02:43;;;;;;;5.60;2.80;;;;;;;;;;5065828;28;20040;-81
2023/01/20 15:05:30;;;;;;;4.13;2.67;;;;;;;;;;5041417;28;20025;-83
2023/01/20 15:08:12;;;;;;;6.95;3.40;;;;;;;;;;5080279;28;20050;-82
2023/01/20 15:10:38;;;;;;;4.95;2.70;;;;;;;;;;5044475;28;20036;-86